sensor_id;sensor_type;location;lat;lon;timestamp;temperature;humidity
61392;DHT22;47261;52.892;5.738;2023-05-07T00:02:14;15.10;99.90
61392;DHT22;47261;52.892;5.738;2023-05-07T00:04:40;15.10;99.90
61392;DHT22;47261;52.892;5.738;2023-05-07T00:07:06;15.10;99.90
61392;DHT22;47261;52.892;5.738;2023-05-07T00:09:31;15.10;99.90
61392;DHT22;47261;52.892;5.738;2023-05-07T00:11:57;15.10;99.90
61392;DHT22;47261;52.892;5.738;2023-05-07T00:14:23;15.10;99.90
61392;DHT22;47261;52.892;5.738;2023-05-07T00:16:48;15.10;99.90
61392;DHT22;47261;52.892;5.738;2023-05-07T00:19:14;15.10;99.90
61392;DHT22;47261;52.892;5.738;2023-05-07T00:21:40;15.10;99.90
61392;DHT22;47261;52.892;5.738;2023-05-07T00:24:06;15.00;99.90
61392;DHT22;47261;52.892;5.738;2023-05-07T00:26:31;15.00;99.90
61392;DHT22;47261;52.892;5.738;2023-05-07T00:28:57;15.00;99.90
61392;DHT22;47261;52.892;5.738;2023-05-07T00:31:23;15.00;99.90
61392;DHT22;47261;52.892;5.738;2023-05-07T00:33:48;15.10;99.90
61392;DHT22;47261;52.892;5.738;2023-05-07T00:36:14;15.10;99.90
61392;DHT22;47261;52.892;5.738;2023-05-07T00:38:39;15.10;99.90
61392;DHT22;47261;52.892;5.738;2023-05-07T00:41:05;15.10;99.90
61392;DHT22;47261;52.892;5.738;2023-05-07T00:43:31;15.10;99.90
61392;DHT22;47261;52.892;5.738;2023-05-07T00:45:57;15.10;99.90
61392;DHT22;47261;52.892;5.738;2023-05-07T00:48:23;15.10;99.90
61392;DHT22;47261;52.892;5.738;2023-05-07T00:50:49;15.10;99.90
61392;DHT22;47261;52.892;5.738;2023-05-07T00:53:15;15.20;99.90
61392;DHT22;47261;52.892;5.738;2023-05-07T00:55:41;15.10;99.90
61392;DHT22;47261;52.892;5.738;2023-05-07T00:58:07;15.20;99.90
61392;DHT22;47261;52.892;5.738;2023-05-07T01:00:33;15.10;99.90
61392;DHT22;47261;52.892;5.738;2023-05-07T01:02:59;15.20;99.90
61392;DHT22;47261;52.892;5.738;2023-05-07T01:05:26;15.20;99.90
61392;DHT22;47261;52.892;5.738;2023-05-07T01:07:53;15.20;99.90
61392;DHT22;47261;52.892;5.738;2023-05-07T01:10:21;15.20;99.90
61392;DHT22;47261;52.892;5.738;2023-05-07T01:12:48;15.20;99.90
61392;DHT22;47261;52.892;5.738;2023-05-07T01:15:15;15.20;99.90
61392;DHT22;47261;52.892;5.738;2023-05-07T01:17:42;15.10;99.90
61392;DHT22;47261;52.892;5.738;2023-05-07T01:20:09;15.20;99.90
61392;DHT22;47261;52.892;5.738;2023-05-07T01:22:37;15.10;99.90
61392;DHT22;47261;52.892;5.738;2023-05-07T01:25:04;15.20;99.90
61392;DHT22;47261;52.892;5.738;2023-05-07T01:27:30;15.20;99.90
61392;DHT22;47261;52.892;5.738;2023-05-07T01:29:56;15.20;99.90
61392;DHT22;47261;52.892;5.738;2023-05-07T01:35:09;15.10;99.90
61392;DHT22;47261;52.892;5.738;2023-05-07T01:37:36;15.20;99.90
61392;DHT22;47261;52.892;5.738;2023-05-07T01:40:02;15.20;99.90
61392;DHT22;47261;52.892;5.738;2023-05-07T01:42:29;15.20;99.90
61392;DHT22;47261;52.892;5.738;2023-05-07T01:44:55;15.20;99.90
61392;DHT22;47261;52.892;5.738;2023-05-07T01:47:21;15.20;99.90
61392;DHT22;47261;52.892;5.738;2023-05-07T01:49:47;15.20;99.90
61392;DHT22;47261;52.892;5.738;2023-05-07T01:52:12;15.10;99.90
61392;DHT22;47261;52.892;5.738;2023-05-07T01:54:38;15.20;99.90
61392;DHT22;47261;52.892;5.738;2023-05-07T01:57:04;15.20;99.90
61392;DHT22;47261;52.892;5.738;2023-05-07T01:59:29;15.20;99.90
61392;DHT22;47261;52.892;5.738;2023-05-07T02:01:55;15.10;99.90
61392;DHT22;47261;52.892;5.738;2023-05-07T02:04:21;15.10;99.90
61392;DHT22;47261;52.892;5.738;2023-05-07T02:06:46;15.00;99.90
61392;DHT22;47261;52.892;5.738;2023-05-07T02:09:13;15.00;99.90
61392;DHT22;47261;52.892;5.738;2023-05-07T02:11:40;15.00;99.90
61392;DHT22;47261;52.892;5.738;2023-05-07T02:14:05;15.00;99.90
61392;DHT22;47261;52.892;5.738;2023-05-07T02:16:31;14.90;99.90
61392;DHT22;47261;52.892;5.738;2023-05-07T02:18:57;14.90;99.90
61392;DHT22;47261;52.892;5.738;2023-05-07T02:21:24;14.90;99.90
61392;DHT22;47261;52.892;5.738;2023-05-07T02:23:49;14.90;99.90
61392;DHT22;47261;52.892;5.738;2023-05-07T02:26:15;14.90;99.90
61392;DHT22;47261;52.892;5.738;2023-05-07T02:28:41;14.90;99.90
61392;DHT22;47261;52.892;5.738;2023-05-07T02:31:07;14.90;99.90
61392;DHT22;47261;52.892;5.738;2023-05-07T02:33:32;14.80;99.90
61392;DHT22;47261;52.892;5.738;2023-05-07T02:36:10;14.80;99.90
61392;DHT22;47261;52.892;5.738;2023-05-07T02:38:36;14.80;99.90
61392;DHT22;47261;52.892;5.738;2023-05-07T02:41:02;14.70;99.90
61392;DHT22;47261;52.892;5.738;2023-05-07T02:43:27;14.70;99.90
61392;DHT22;47261;52.892;5.738;2023-05-07T02:46:03;14.70;99.90
61392;DHT22;47261;52.892;5.738;2023-05-07T02:48:29;14.70;99.90
61392;DHT22;47261;52.892;5.738;2023-05-07T02:50:55;14.60;99.90
61392;DHT22;47261;52.892;5.738;2023-05-07T02:53:21;14.60;99.90
61392;DHT22;47261;52.892;5.738;2023-05-07T02:55:46;14.60;99.90
61392;DHT22;47261;52.892;5.738;2023-05-07T02:58:12;14.50;99.90
61392;DHT22;47261;52.892;5.738;2023-05-07T03:00:38;14.50;99.90
61392;DHT22;47261;52.892;5.738;2023-05-07T03:03:03;14.50;99.90
61392;DHT22;47261;52.892;5.738;2023-05-07T03:05:29;14.50;99.90
61392;DHT22;47261;52.892;5.738;2023-05-07T03:07:55;14.40;99.90
61392;DHT22;47261;52.892;5.738;2023-05-07T03:10:20;14.40;99.90
61392;DHT22;47261;52.892;5.738;2023-05-07T03:12:46;14.40;99.90
61392;DHT22;47261;52.892;5.738;2023-05-07T03:15:11;14.30;99.90
61392;DHT22;47261;52.892;5.738;2023-05-07T03:17:38;14.30;99.90
61392;DHT22;47261;52.892;5.738;2023-05-07T03:20:04;14.30;99.90
61392;DHT22;47261;52.892;5.738;2023-05-07T03:22:30;14.20;99.90
61392;DHT22;47261;52.892;5.738;2023-05-07T03:24:56;14.20;99.90
61392;DHT22;47261;52.892;5.738;2023-05-07T03:27:21;14.20;99.90
61392;DHT22;47261;52.892;5.738;2023-05-07T03:29:47;14.20;99.90
61392;DHT22;47261;52.892;5.738;2023-05-07T03:32:13;14.20;99.90
61392;DHT22;47261;52.892;5.738;2023-05-07T03:34:38;14.20;99.90
61392;DHT22;47261;52.892;5.738;2023-05-07T03:37:04;14.20;99.90
61392;DHT22;47261;52.892;5.738;2023-05-07T03:39:30;14.20;99.90
61392;DHT22;47261;52.892;5.738;2023-05-07T03:41:56;14.10;99.90
61392;DHT22;47261;52.892;5.738;2023-05-07T03:44:22;14.10;99.90
61392;DHT22;47261;52.892;5.738;2023-05-07T03:46:47;14.00;99.90
61392;DHT22;47261;52.892;5.738;2023-05-07T03:49:13;14.00;99.90
61392;DHT22;47261;52.892;5.738;2023-05-07T03:51:38;13.90;99.90
61392;DHT22;47261;52.892;5.738;2023-05-07T03:54:04;13.80;99.90
61392;DHT22;47261;52.892;5.738;2023-05-07T03:56:30;13.80;99.90
61392;DHT22;47261;52.892;5.738;2023-05-07T03:58:56;13.80;99.90
61392;DHT22;47261;52.892;5.738;2023-05-07T04:01:22;13.70;99.90
61392;DHT22;47261;52.892;5.738;2023-05-07T04:03:47;13.70;99.90
61392;DHT22;47261;52.892;5.738;2023-05-07T04:06:15;13.70;99.90
61392;DHT22;47261;52.892;5.738;2023-05-07T04:08:40;13.70;99.90
61392;DHT22;47261;52.892;5.738;2023-05-07T04:11:06;13.60;99.90
61392;DHT22;47261;52.892;5.738;2023-05-07T04:13:32;13.60;99.90
61392;DHT22;47261;52.892;5.738;2023-05-07T04:15:57;13.60;99.90
61392;DHT22;47261;52.892;5.738;2023-05-07T04:18:23;13.60;99.90
61392;DHT22;47261;52.892;5.738;2023-05-07T04:20:49;13.60;99.90
61392;DHT22;47261;52.892;5.738;2023-05-07T04:23:17;13.50;99.90
61392;DHT22;47261;52.892;5.738;2023-05-07T04:25:43;13.50;99.90
61392;DHT22;47261;52.892;5.738;2023-05-07T04:28:08;13.50;99.90
61392;DHT22;47261;52.892;5.738;2023-05-07T04:30:34;13.50;99.90
61392;DHT22;47261;52.892;5.738;2023-05-07T04:32:59;13.40;99.90
61392;DHT22;47261;52.892;5.738;2023-05-07T04:35:25;13.40;99.90
61392;DHT22;47261;52.892;5.738;2023-05-07T04:37:51;13.40;99.90
61392;DHT22;47261;52.892;5.738;2023-05-07T04:40:16;13.50;99.90
61392;DHT22;47261;52.892;5.738;2023-05-07T04:42:42;13.50;99.90
61392;DHT22;47261;52.892;5.738;2023-05-07T04:45:08;13.40;99.90
61392;DHT22;47261;52.892;5.738;2023-05-07T04:47:35;13.40;99.90
61392;DHT22;47261;52.892;5.738;2023-05-07T04:50:01;13.40;99.90
61392;DHT22;47261;52.892;5.738;2023-05-07T04:52:27;13.40;99.90
61392;DHT22;47261;52.892;5.738;2023-05-07T04:54:52;13.40;99.90
61392;DHT22;47261;52.892;5.738;2023-05-07T04:57:18;13.40;99.90
61392;DHT22;47261;52.892;5.738;2023-05-07T04:59:44;13.30;99.90
61392;DHT22;47261;52.892;5.738;2023-05-07T05:02:12;13.30;99.90
61392;DHT22;47261;52.892;5.738;2023-05-07T05:04:38;13.30;99.90
61392;DHT22;47261;52.892;5.738;2023-05-07T05:07:03;13.20;99.90
61392;DHT22;47261;52.892;5.738;2023-05-07T05:09:29;13.20;99.90
61392;DHT22;47261;52.892;5.738;2023-05-07T05:11:55;13.30;99.90
61392;DHT22;47261;52.892;5.738;2023-05-07T05:14:21;13.20;99.90
61392;DHT22;47261;52.892;5.738;2023-05-07T05:16:47;13.20;99.90
61392;DHT22;47261;52.892;5.738;2023-05-07T05:19:12;13.20;99.90
61392;DHT22;47261;52.892;5.738;2023-05-07T05:21:38;13.20;99.90
61392;DHT22;47261;52.892;5.738;2023-05-07T05:24:04;13.10;99.90
61392;DHT22;47261;52.892;5.738;2023-05-07T05:26:29;13.10;99.90
61392;DHT22;47261;52.892;5.738;2023-05-07T05:28:55;13.10;99.90
61392;DHT22;47261;52.892;5.738;2023-05-07T05:31:20;13.10;99.90
61392;DHT22;47261;52.892;5.738;2023-05-07T05:33:46;13.10;99.90
61392;DHT22;47261;52.892;5.738;2023-05-07T05:36:12;13.10;99.90
61392;DHT22;47261;52.892;5.738;2023-05-07T05:38:39;13.10;99.90
61392;DHT22;47261;52.892;5.738;2023-05-07T05:41:05;13.20;99.90
61392;DHT22;47261;52.892;5.738;2023-05-07T05:43:30;13.20;99.90
61392;DHT22;47261;52.892;5.738;2023-05-07T05:45:56;13.20;99.90
61392;DHT22;47261;52.892;5.738;2023-05-07T05:48:23;13.30;99.90
61392;DHT22;47261;52.892;5.738;2023-05-07T05:50:49;13.30;99.90
61392;DHT22;47261;52.892;5.738;2023-05-07T05:53:14;13.30;99.90
61392;DHT22;47261;52.892;5.738;2023-05-07T05:55:41;13.40;99.90
61392;DHT22;47261;52.892;5.738;2023-05-07T05:58:07;13.40;99.90
61392;DHT22;47261;52.892;5.738;2023-05-07T06:00:33;13.50;99.90
61392;DHT22;47261;52.892;5.738;2023-05-07T06:02:58;13.50;99.90
61392;DHT22;47261;52.892;5.738;2023-05-07T06:05:24;13.50;99.90
61392;DHT22;47261;52.892;5.738;2023-05-07T06:07:49;13.50;99.90
61392;DHT22;47261;52.892;5.738;2023-05-07T06:10:18;13.60;99.90
61392;DHT22;47261;52.892;5.738;2023-05-07T06:12:44;13.80;99.90
61392;DHT22;47261;52.892;5.738;2023-05-07T06:15:10;14.10;99.90
61392;DHT22;47261;52.892;5.738;2023-05-07T06:17:38;14.20;99.90
61392;DHT22;47261;52.892;5.738;2023-05-07T06:20:05;14.30;99.90
61392;DHT22;47261;52.892;5.738;2023-05-07T06:22:31;14.30;99.90
61392;DHT22;47261;52.892;5.738;2023-05-07T06:24:56;14.30;99.90
61392;DHT22;47261;52.892;5.738;2023-05-07T06:27:22;14.30;99.90
61392;DHT22;47261;52.892;5.738;2023-05-07T06:29:48;14.20;99.90
61392;DHT22;47261;52.892;5.738;2023-05-07T06:32:14;14.20;99.90
61392;DHT22;47261;52.892;5.738;2023-05-07T06:34:40;14.10;99.90
61392;DHT22;47261;52.892;5.738;2023-05-07T06:37:06;14.10;99.90
61392;DHT22;47261;52.892;5.738;2023-05-07T06:39:32;14.10;99.90
61392;DHT22;47261;52.892;5.738;2023-05-07T06:42:00;14.00;99.90
61392;DHT22;47261;52.892;5.738;2023-05-07T06:44:26;14.00;99.90
61392;DHT22;47261;52.892;5.738;2023-05-07T06:46:52;14.00;99.90
61392;DHT22;47261;52.892;5.738;2023-05-07T06:49:18;14.00;99.90
61392;DHT22;47261;52.892;5.738;2023-05-07T06:51:43;14.00;99.90
61392;DHT22;47261;52.892;5.738;2023-05-07T06:54:09;14.00;99.90
61392;DHT22;47261;52.892;5.738;2023-05-07T06:56:35;14.10;99.90
61392;DHT22;47261;52.892;5.738;2023-05-07T06:59:01;14.10;99.90
61392;DHT22;47261;52.892;5.738;2023-05-07T07:01:28;14.20;99.90
61392;DHT22;47261;52.892;5.738;2023-05-07T07:03:53;14.20;99.90
61392;DHT22;47261;52.892;5.738;2023-05-07T07:06:19;14.30;99.90
61392;DHT22;47261;52.892;5.738;2023-05-07T07:08:45;14.30;99.90
61392;DHT22;47261;52.892;5.738;2023-05-07T07:11:11;14.40;99.90
61392;DHT22;47261;52.892;5.738;2023-05-07T07:13:37;14.40;99.90
61392;DHT22;47261;52.892;5.738;2023-05-07T07:16:03;14.50;99.90
61392;DHT22;47261;52.892;5.738;2023-05-07T07:18:28;14.50;99.90
61392;DHT22;47261;52.892;5.738;2023-05-07T07:20:54;14.50;99.90
61392;DHT22;47261;52.892;5.738;2023-05-07T07:23:20;14.50;99.90
61392;DHT22;47261;52.892;5.738;2023-05-07T07:25:46;14.60;99.90
61392;DHT22;47261;52.892;5.738;2023-05-07T07:28:11;14.60;99.90
61392;DHT22;47261;52.892;5.738;2023-05-07T07:30:37;14.70;99.90
61392;DHT22;47261;52.892;5.738;2023-05-07T07:33:03;14.70;99.90
61392;DHT22;47261;52.892;5.738;2023-05-07T07:35:29;14.80;99.90
61392;DHT22;47261;52.892;5.738;2023-05-07T07:37:55;14.90;99.90
61392;DHT22;47261;52.892;5.738;2023-05-07T07:40:21;14.90;99.90
61392;DHT22;47261;52.892;5.738;2023-05-07T07:42:46;14.90;99.90
61392;DHT22;47261;52.892;5.738;2023-05-07T07:45:12;14.90;99.90
61392;DHT22;47261;52.892;5.738;2023-05-07T07:47:39;14.90;99.90
61392;DHT22;47261;52.892;5.738;2023-05-07T07:50:05;15.00;99.90
61392;DHT22;47261;52.892;5.738;2023-05-07T07:52:31;15.00;99.90
61392;DHT22;47261;52.892;5.738;2023-05-07T07:54:56;15.10;99.90
61392;DHT22;47261;52.892;5.738;2023-05-07T07:57:22;15.10;99.90
61392;DHT22;47261;52.892;5.738;2023-05-07T07:59:47;15.20;99.90
61392;DHT22;47261;52.892;5.738;2023-05-07T08:02:13;15.20;99.90
61392;DHT22;47261;52.892;5.738;2023-05-07T08:04:39;15.20;99.90
61392;DHT22;47261;52.892;5.738;2023-05-07T08:07:04;15.30;99.90
61392;DHT22;47261;52.892;5.738;2023-05-07T08:09:31;15.20;99.90
61392;DHT22;47261;52.892;5.738;2023-05-07T08:11:57;15.30;99.90
61392;DHT22;47261;52.892;5.738;2023-05-07T08:14:23;15.30;99.90
61392;DHT22;47261;52.892;5.738;2023-05-07T08:16:48;15.30;99.90
61392;DHT22;47261;52.892;5.738;2023-05-07T08:19:14;15.40;99.90
61392;DHT22;47261;52.892;5.738;2023-05-07T08:21:40;15.40;99.90
61392;DHT22;47261;52.892;5.738;2023-05-07T08:24:06;15.50;99.90
61392;DHT22;47261;52.892;5.738;2023-05-07T08:26:31;15.60;99.90
61392;DHT22;47261;52.892;5.738;2023-05-07T08:28:57;15.80;99.90
61392;DHT22;47261;52.892;5.738;2023-05-07T08:31:23;16.00;99.90
61392;DHT22;47261;52.892;5.738;2023-05-07T08:33:50;16.20;99.90
61392;DHT22;47261;52.892;5.738;2023-05-07T08:36:16;16.40;99.90
61392;DHT22;47261;52.892;5.738;2023-05-07T08:38:41;16.50;99.90
61392;DHT22;47261;52.892;5.738;2023-05-07T08:41:10;16.70;99.90
61392;DHT22;47261;52.892;5.738;2023-05-07T08:43:36;16.90;99.90
61392;DHT22;47261;52.892;5.738;2023-05-07T08:46:04;17.00;99.90
61392;DHT22;47261;52.892;5.738;2023-05-07T08:48:31;17.00;99.70
61392;DHT22;47261;52.892;5.738;2023-05-07T08:50:58;17.00;99.40
61392;DHT22;47261;52.892;5.738;2023-05-07T08:53:24;17.00;99.30
61392;DHT22;47261;52.892;5.738;2023-05-07T08:55:51;17.00;99.10
61392;DHT22;47261;52.892;5.738;2023-05-07T08:58:18;16.90;99.10
61392;DHT22;47261;52.892;5.738;2023-05-07T09:00:43;16.90;99.00
61392;DHT22;47261;52.892;5.738;2023-05-07T09:03:09;16.90;98.90
61392;DHT22;47261;52.892;5.738;2023-05-07T09:05:38;17.00;98.90
61392;DHT22;47261;52.892;5.738;2023-05-07T09:08:05;17.00;98.80
61392;DHT22;47261;52.892;5.738;2023-05-07T09:10:33;17.00;98.80
61392;DHT22;47261;52.892;5.738;2023-05-07T09:12:59;17.00;98.80
61392;DHT22;47261;52.892;5.738;2023-05-07T09:15:25;17.00;98.70
61392;DHT22;47261;52.892;5.738;2023-05-07T09:17:51;17.00;98.70
61392;DHT22;47261;52.892;5.738;2023-05-07T09:20:17;17.10;98.70
61392;DHT22;47261;52.892;5.738;2023-05-07T09:22:42;17.10;98.60
61392;DHT22;47261;52.892;5.738;2023-05-07T09:25:09;17.20;98.60
61392;DHT22;47261;52.892;5.738;2023-05-07T09:27:35;17.30;98.60
61392;DHT22;47261;52.892;5.738;2023-05-07T09:30:05;17.40;98.50
61392;DHT22;47261;52.892;5.738;2023-05-07T09:32:34;17.40;98.30
61392;DHT22;47261;52.892;5.738;2023-05-07T09:35:01;17.50;98.10
61392;DHT22;47261;52.892;5.738;2023-05-07T09:37:26;17.50;98.00
61392;DHT22;47261;52.892;5.738;2023-05-07T09:39:52;17.60;98.00
61392;DHT22;47261;52.892;5.738;2023-05-07T09:42:26;17.80;98.00
61392;DHT22;47261;52.892;5.738;2023-05-07T09:44:53;17.90;97.80
61392;DHT22;47261;52.892;5.738;2023-05-07T09:47:19;18.00;97.60
61392;DHT22;47261;52.892;5.738;2023-05-07T09:49:48;18.10;97.60
61392;DHT22;47261;52.892;5.738;2023-05-07T09:52:14;18.20;97.50
61392;DHT22;47261;52.892;5.738;2023-05-07T09:54:40;18.40;97.70
61392;DHT22;47261;52.892;5.738;2023-05-07T09:57:10;18.50;97.40
61392;DHT22;47261;52.892;5.738;2023-05-07T09:59:37;18.80;97.00
61392;DHT22;47261;52.892;5.738;2023-05-07T10:02:04;18.80;96.50
61392;DHT22;47261;52.892;5.738;2023-05-07T10:04:32;19.00;96.50
61392;DHT22;47261;52.892;5.738;2023-05-07T10:06:58;19.10;96.00
61392;DHT22;47261;52.892;5.738;2023-05-07T10:09:25;19.20;96.00
61392;DHT22;47261;52.892;5.738;2023-05-07T10:11:51;19.40;96.00
61392;DHT22;47261;52.892;5.738;2023-05-07T10:14:20;19.60;95.70
61392;DHT22;47261;52.892;5.738;2023-05-07T10:16:47;19.80;94.80
61392;DHT22;47261;52.892;5.738;2023-05-07T10:19:14;19.80;94.50
61392;DHT22;47261;52.892;5.738;2023-05-07T10:21:44;19.80;94.50
61392;DHT22;47261;52.892;5.738;2023-05-07T10:24:20;19.70;94.30
61392;DHT22;47261;52.892;5.738;2023-05-07T10:26:50;19.80;94.40
61392;DHT22;47261;52.892;5.738;2023-05-07T10:34:38;20.20;93.40
61392;DHT22;47261;52.892;5.738;2023-05-07T10:37:06;20.20;93.00
61392;DHT22;47261;52.892;5.738;2023-05-07T10:39:32;20.30;93.10
61392;DHT22;47261;52.892;5.738;2023-05-07T10:42:08;20.40;93.00
61392;DHT22;47261;52.892;5.738;2023-05-07T10:44:34;20.60;93.00
61392;DHT22;47261;52.892;5.738;2023-05-07T10:47:11;20.80;92.60
61392;DHT22;47261;52.892;5.738;2023-05-07T10:54:44;21.10;91.90
61392;DHT22;47261;52.892;5.738;2023-05-07T10:57:36;21.20;91.90
61392;DHT22;47261;52.892;5.738;2023-05-07T11:05:26;21.40;91.00
61392;DHT22;47261;52.892;5.738;2023-05-07T11:08:01;21.50;91.30
61392;DHT22;47261;52.892;5.738;2023-05-07T11:10:50;21.50;91.00
61392;DHT22;47261;52.892;5.738;2023-05-07T11:13:16;21.50;91.10
61392;DHT22;47261;52.892;5.738;2023-05-07T11:15:47;21.60;91.00
61392;DHT22;47261;52.892;5.738;2023-05-07T11:18:17;21.60;90.70
61392;DHT22;47261;52.892;5.738;2023-05-07T11:20:46;21.50;90.30
61392;DHT22;47261;52.892;5.738;2023-05-07T11:26:05;21.70;90.40
61392;DHT22;47261;52.892;5.738;2023-05-07T11:28:32;22.00;90.30
61392;DHT22;47261;52.892;5.738;2023-05-07T11:31:02;22.20;90.10
61392;DHT22;47261;52.892;5.738;2023-05-07T11:33:29;22.20;89.00
61392;DHT22;47261;52.892;5.738;2023-05-07T11:35:55;22.20;88.90
61392;DHT22;47261;52.892;5.738;2023-05-07T11:38:21;22.20;89.00
61392;DHT22;47261;52.892;5.738;2023-05-07T11:40:53;22.10;88.90
61392;DHT22;47261;52.892;5.738;2023-05-07T11:43:19;22.10;87.70
61392;DHT22;47261;52.892;5.738;2023-05-07T11:45:48;22.10;87.80
61392;DHT22;47261;52.892;5.738;2023-05-07T11:48:15;22.20;87.60
61392;DHT22;47261;52.892;5.738;2023-05-07T11:50:51;22.40;87.50
61392;DHT22;47261;52.892;5.738;2023-05-07T11:53:20;22.50;85.80
61392;DHT22;47261;52.892;5.738;2023-05-07T11:55:52;22.60;85.70
61392;DHT22;47261;52.892;5.738;2023-05-07T11:58:21;22.60;85.50
61392;DHT22;47261;52.892;5.738;2023-05-07T12:00:51;22.70;85.60
61392;DHT22;47261;52.892;5.738;2023-05-07T12:03:16;22.70;85.50
61392;DHT22;47261;52.892;5.738;2023-05-07T12:05:46;22.80;85.40
61392;DHT22;47261;52.892;5.738;2023-05-07T12:08:16;22.80;85.20
61392;DHT22;47261;52.892;5.738;2023-05-07T12:10:42;22.70;84.60
61392;DHT22;47261;52.892;5.738;2023-05-07T12:13:18;22.60;84.50
61392;DHT22;47261;52.892;5.738;2023-05-07T12:15:44;22.60;84.80
61392;DHT22;47261;52.892;5.738;2023-05-07T12:18:13;22.60;84.90
61392;DHT22;47261;52.892;5.738;2023-05-07T12:20:39;22.60;84.50
61392;DHT22;47261;52.892;5.738;2023-05-07T12:23:05;22.60;84.30
61392;DHT22;47261;52.892;5.738;2023-05-07T12:25:38;22.60;84.10
61392;DHT22;47261;52.892;5.738;2023-05-07T12:28:04;22.50;85.10
61392;DHT22;47261;52.892;5.738;2023-05-07T12:30:40;22.40;84.90
61392;DHT22;47261;52.892;5.738;2023-05-07T12:33:06;22.30;84.40
61392;DHT22;47261;52.892;5.738;2023-05-07T12:35:35;22.40;85.10
61392;DHT22;47261;52.892;5.738;2023-05-07T12:38:01;22.40;85.00
61392;DHT22;47261;52.892;5.738;2023-05-07T12:43:02;22.30;84.90
61392;DHT22;47261;52.892;5.738;2023-05-07T12:45:28;22.30;84.50
61392;DHT22;47261;52.892;5.738;2023-05-07T12:47:53;22.30;84.80
61392;DHT22;47261;52.892;5.738;2023-05-07T12:50:19;22.30;84.80
61392;DHT22;47261;52.892;5.738;2023-05-07T12:52:47;22.30;84.60
61392;DHT22;47261;52.892;5.738;2023-05-07T12:55:16;22.30;84.40
61392;DHT22;47261;52.892;5.738;2023-05-07T12:57:45;22.20;84.80
61392;DHT22;47261;52.892;5.738;2023-05-07T13:00:11;22.20;85.40
61392;DHT22;47261;52.892;5.738;2023-05-07T13:02:39;22.20;85.50
61392;DHT22;47261;52.892;5.738;2023-05-07T13:05:05;22.20;85.90
61392;DHT22;47261;52.892;5.738;2023-05-07T13:07:31;22.20;84.90
61392;DHT22;47261;52.892;5.738;2023-05-07T13:09:56;22.10;85.20
61392;DHT22;47261;52.892;5.738;2023-05-07T13:12:22;22.10;85.30
61392;DHT22;47261;52.892;5.738;2023-05-07T13:14:47;22.10;85.40
61392;DHT22;47261;52.892;5.738;2023-05-07T13:17:13;22.20;85.70
61392;DHT22;47261;52.892;5.738;2023-05-07T13:19:39;22.30;85.50
61392;DHT22;47261;52.892;5.738;2023-05-07T13:22:04;22.30;84.80
61392;DHT22;47261;52.892;5.738;2023-05-07T13:24:30;22.30;84.10
61392;DHT22;47261;52.892;5.738;2023-05-07T13:26:56;22.30;84.00
61392;DHT22;47261;52.892;5.738;2023-05-07T13:29:21;22.30;83.80
61392;DHT22;47261;52.892;5.738;2023-05-07T13:31:54;22.20;84.00
61392;DHT22;47261;52.892;5.738;2023-05-07T13:34:20;22.20;84.60
61392;DHT22;47261;52.892;5.738;2023-05-07T13:36:46;22.30;84.60
61392;DHT22;47261;52.892;5.738;2023-05-07T13:39:11;22.40;84.70
61392;DHT22;47261;52.892;5.738;2023-05-07T13:41:37;22.40;83.90
61392;DHT22;47261;52.892;5.738;2023-05-07T13:44:02;22.50;83.80
61392;DHT22;47261;52.892;5.738;2023-05-07T13:46:28;22.40;83.20
61392;DHT22;47261;52.892;5.738;2023-05-07T13:48:55;22.30;82.60
61392;DHT22;47261;52.892;5.738;2023-05-07T13:51:21;22.20;82.40
61392;DHT22;47261;52.892;5.738;2023-05-07T13:53:47;22.20;81.70
61392;DHT22;47261;52.892;5.738;2023-05-07T13:56:12;22.10;81.40
61392;DHT22;47261;52.892;5.738;2023-05-07T13:58:39;22.10;81.50
61392;DHT22;47261;52.892;5.738;2023-05-07T14:01:05;22.20;81.50
61392;DHT22;47261;52.892;5.738;2023-05-07T14:03:30;22.30;80.80
61392;DHT22;47261;52.892;5.738;2023-05-07T14:05:58;22.30;80.40
61392;DHT22;47261;52.892;5.738;2023-05-07T14:08:25;22.30;81.10
61392;DHT22;47261;52.892;5.738;2023-05-07T14:10:51;22.30;81.10
61392;DHT22;47261;52.892;5.738;2023-05-07T14:13:17;22.40;81.10
61392;DHT22;47261;52.892;5.738;2023-05-07T14:15:43;22.40;81.50
61392;DHT22;47261;52.892;5.738;2023-05-07T14:18:12;22.50;81.50
61392;DHT22;47261;52.892;5.738;2023-05-07T14:20:38;22.50;81.70
61392;DHT22;47261;52.892;5.738;2023-05-07T14:23:04;22.60;81.30
61392;DHT22;47261;52.892;5.738;2023-05-07T14:25:30;22.60;81.10
61392;DHT22;47261;52.892;5.738;2023-05-07T14:27:55;22.80;81.10
61392;DHT22;47261;52.892;5.738;2023-05-07T14:30:21;23.00;80.70
61392;DHT22;47261;52.892;5.738;2023-05-07T14:32:49;22.90;80.10
61392;DHT22;47261;52.892;5.738;2023-05-07T14:35:15;22.80;80.90
61392;DHT22;47261;52.892;5.738;2023-05-07T14:37:41;22.70;80.50
61392;DHT22;47261;52.892;5.738;2023-05-07T14:40:07;22.60;80.80
61392;DHT22;47261;52.892;5.738;2023-05-07T14:42:33;22.50;80.60
61392;DHT22;47261;52.892;5.738;2023-05-07T14:44:58;22.40;81.30
61392;DHT22;47261;52.892;5.738;2023-05-07T14:47:24;22.50;81.60
61392;DHT22;47261;52.892;5.738;2023-05-07T14:49:50;22.60;81.30
61392;DHT22;47261;52.892;5.738;2023-05-07T14:52:15;22.60;80.90
61392;DHT22;47261;52.892;5.738;2023-05-07T14:54:41;22.50;80.70
61392;DHT22;47261;52.892;5.738;2023-05-07T14:57:09;22.50;80.70
61392;DHT22;47261;52.892;5.738;2023-05-07T14:59:35;22.40;81.10
61392;DHT22;47261;52.892;5.738;2023-05-07T15:02:01;22.20;81.30
61392;DHT22;47261;52.892;5.738;2023-05-07T15:04:27;22.20;81.60
61392;DHT22;47261;52.892;5.738;2023-05-07T15:06:52;22.10;81.70
61392;DHT22;47261;52.892;5.738;2023-05-07T15:09:22;22.00;82.30
61392;DHT22;47261;52.892;5.738;2023-05-07T15:11:48;21.80;82.50
61392;DHT22;47261;52.892;5.738;2023-05-07T15:14:13;21.70;82.90
61392;DHT22;47261;52.892;5.738;2023-05-07T15:16:39;21.60;83.00
61392;DHT22;47261;52.892;5.738;2023-05-07T15:19:05;21.70;83.40
61392;DHT22;47261;52.892;5.738;2023-05-07T15:21:31;21.70;83.40
61392;DHT22;47261;52.892;5.738;2023-05-07T15:23:59;21.60;83.40
61392;DHT22;47261;52.892;5.738;2023-05-07T15:26:26;21.60;84.00
61392;DHT22;47261;52.892;5.738;2023-05-07T15:28:51;21.70;84.30
61392;DHT22;47261;52.892;5.738;2023-05-07T15:31:17;21.70;84.40
61392;DHT22;47261;52.892;5.738;2023-05-07T15:33:43;21.80;84.30
61392;DHT22;47261;52.892;5.738;2023-05-07T15:36:10;21.90;84.40
61392;DHT22;47261;52.892;5.738;2023-05-07T15:38:36;21.90;84.10
61392;DHT22;47261;52.892;5.738;2023-05-07T15:41:02;21.80;84.20
61392;DHT22;47261;52.892;5.738;2023-05-07T15:43:28;21.60;83.80
61392;DHT22;47261;52.892;5.738;2023-05-07T15:45:53;21.50;84.00
61392;DHT22;47261;52.892;5.738;2023-05-07T15:48:19;21.50;84.30
61392;DHT22;47261;52.892;5.738;2023-05-07T15:50:45;21.40;84.40